Time;durP1;ratioP1;P1;durP2;ratioP2;P2;SDS_P1;SDS_P2;PMS_P1;PMS_P2;Temp;Humidity;BMP_temperature;BMP_pressure;BME280_temperature;BME280_humidity;BME280_pressure;Samples;Min_cycle;Max_cycle;Signal;HPM_P1;HPM_P2
2023/02/27 00:00:52;;;;;;;5.57;4.57;;;;;;;;;;6239288;22;20163;-78
2023/02/27 00:03:18;;;;;;;7.80;5.10;;;;;;;;;;6267543;22;20231;-77
2023/02/27 00:05:44;;;;;;;6.77;4.87;;;;;;;;;;6240133;22;20214;-77
2023/02/27 00:08:10;;;;;;;6.37;4.50;;;;;;;;;;6267769;22;20184;-77
2023/02/27 00:10:36;;;;;;;6.43;4.20;;;;;;;;;;6267841;22;20877;-77
2023/02/27 00:13:02;;;;;;;6.27;4.37;;;;;;;;;;6240603;22;20161;-78
2023/02/27 00:15:30;;;;;;;6.23;3.60;;;;;;;;;;6240524;22;20157;-77
2023/02/27 00:17:57;;;;;;;5.33;4.33;;;;;;;;;;6240230;22;21081;-77
2023/02/27 00:20:22;;;;;;;6.77;4.10;;;;;;;;;;6240612;22;20165;-78
2023/02/27 00:22:48;;;;;;;4.43;3.40;;;;;;;;;;6267066;22;21049;-77
2023/02/27 00:25:15;;;;;;;5.20;3.70;;;;;;;;;;6267467;22;20159;-77
2023/02/27 00:27:41;;;;;;;6.03;3.97;;;;;;;;;;6239520;22;20671;-77
2023/02/27 00:30:08;;;;;;;5.80;3.90;;;;;;;;;;6239671;22;20164;-76
2023/02/27 00:32:37;;;;;;;5.80;3.67;;;;;;;;;;6266931;22;20275;-77
2023/02/27 00:35:03;;;;;;;4.93;3.63;;;;;;;;;;6266825;22;20247;-77
2023/02/27 00:37:29;;;;;;;5.30;3.80;;;;;;;;;;6266597;22;20145;-77
2023/02/27 00:39:55;;;;;;;6.93;3.87;;;;;;;;;;6266630;22;20153;-77
2023/02/27 00:42:21;;;;;;;6.53;3.60;;;;;;;;;;6266056;22;20617;-76
2023/02/27 00:44:47;;;;;;;4.90;3.43;;;;;;;;;;6266103;22;20605;-76
2023/02/27 00:47:13;;;;;;;5.77;4.10;;;;;;;;;;6239073;22;20167;-77
2023/02/27 00:49:39;;;;;;;6.43;4.20;;;;;;;;;;6267676;22;20188;-76
2023/02/27 00:52:05;;;;;;;6.03;4.23;;;;;;;;;;6267686;22;20149;-77
2023/02/27 00:54:31;;;;;;;6.70;4.10;;;;;;;;;;6238846;22;20597;-77
2023/02/27 00:56:57;;;;;;;6.30;3.80;;;;;;;;;;6267172;22;20787;-77
2023/02/27 00:59:23;;;;;;;4.93;3.50;;;;;;;;;;6266869;22;20620;-78
2023/02/27 01:01:49;;;;;;;4.80;3.70;;;;;;;;;;6267354;22;20152;-77
2023/02/27 01:04:15;;;;;;;5.57;3.70;;;;;;;;;;6267204;22;20605;-77
2023/02/27 01:06:41;;;;;;;4.60;3.27;;;;;;;;;;6239704;22;20161;-77
2023/02/27 01:09:07;;;;;;;5.23;3.70;;;;;;;;;;6240537;22;20191;-78
2023/02/27 01:11:33;;;;;;;5.67;3.57;;;;;;;;;;6267732;22;20149;-77
2023/02/27 01:13:59;;;;;;;4.33;3.43;;;;;;;;;;6267692;22;20529;-77
2023/02/27 01:16:25;;;;;;;7.07;4.13;;;;;;;;;;6267233;22;20593;-77
2023/02/27 01:18:51;;;;;;;5.33;4.30;;;;;;;;;;6240273;22;20188;-77
2023/02/27 01:21:17;;;;;;;6.07;4.10;;;;;;;;;;6267682;22;20542;-78
2023/02/27 01:23:43;;;;;;;6.20;4.70;;;;;;;;;;6266951;22;20160;-77
2023/02/27 01:26:09;;;;;;;7.97;4.80;;;;;;;;;;6239951;22;20504;-77
2023/02/27 01:28:35;;;;;;;7.70;4.43;;;;;;;;;;6266570;22;20200;-77
2023/02/27 01:31:01;;;;;;;6.27;4.80;;;;;;;;;;6267633;22;20172;-77
2023/02/27 01:33:28;;;;;;;7.20;4.37;;;;;;;;;;6239902;22;20153;-77
2023/02/27 01:35:53;;;;;;;5.10;4.00;;;;;;;;;;6266755;22;20908;-77
2023/02/27 01:38:19;;;;;;;7.23;4.33;;;;;;;;;;6267167;22;20179;-77
2023/02/27 01:40:45;;;;;;;6.20;3.87;;;;;;;;;;6266995;22;20965;-77
2023/02/27 01:43:16;;;;;;;5.43;3.93;;;;;;;;;;6266860;22;20191;-77
2023/02/27 01:45:43;;;;;;;6.37;4.27;;;;;;;;;;6267013;22;20160;-77
2023/02/27 01:48:12;;;;;;;8.03;4.33;;;;;;;;;;6266873;22;20230;-77
2023/02/27 01:50:41;;;;;;;5.33;3.80;;;;;;;;;;6239727;22;20211;-76
2023/02/27 01:53:07;;;;;;;6.00;4.03;;;;;;;;;;6267024;22;20178;-77
2023/02/27 01:55:36;;;;;;;5.97;3.60;;;;;;;;;;6266723;22;20156;-77
2023/02/27 01:58:04;;;;;;;3.93;3.53;;;;;;;;;;6240160;22;20215;-77
2023/02/27 02:00:30;;;;;;;4.83;3.50;;;;;;;;;;6267049;22;20157;-78
2023/02/27 02:03:02;;;;;;;6.07;3.90;;;;;;;;;;6267671;22;20179;-76
2023/02/27 02:05:29;;;;;;;5.83;3.57;;;;;;;;;;6266208;22;20195;-77
2023/02/27 02:07:55;;;;;;;5.23;3.77;;;;;;;;;;6269411;22;20183;-77
2023/02/27 02:10:22;;;;;;;4.57;3.67;;;;;;;;;;6268312;22;20153;-78
2023/02/27 02:12:48;;;;;;;5.60;4.40;;;;;;;;;;6239945;22;20368;-77
2023/02/27 02:15:14;;;;;;;4.83;3.53;;;;;;;;;;6268481;22;20475;-77
2023/02/27 02:17:44;;;;;;;5.10;3.60;;;;;;;;;;6240850;22;20307;-77
2023/02/27 02:20:28;;;;;;;4.30;3.10;;;;;;;;;;6268625;22;20707;-77
2023/02/27 02:23:13;;;;;;;6.70;4.30;;;;;;;;;;6268700;22;20161;-76
2023/02/27 02:25:42;;;;;;;5.87;3.63;;;;;;;;;;6268109;22;20152;-77
2023/02/27 02:28:21;;;;;;;4.60;3.50;;;;;;;;;;6240788;22;20181;-77
2023/02/27 02:30:58;;;;;;;4.10;3.40;;;;;;;;;;6240919;22;20152;-77
2023/02/27 02:33:43;;;;;;;4.13;3.33;;;;;;;;;;6268379;22;20141;-77
2023/02/27 02:36:16;;;;;;;6.20;3.73;;;;;;;;;;6268328;22;20601;-77
2023/02/27 02:38:48;;;;;;;4.47;3.03;;;;;;;;;;6268487;22;20183;-77
2023/02/27 02:41:18;;;;;;;5.27;2.80;;;;;;;;;;6267909;22;20719;-77
2023/02/27 02:43:53;;;;;;;3.43;2.43;;;;;;;;;;6267837;22;20504;-76
2023/02/27 02:46:30;;;;;;;5.37;2.77;;;;;;;;;;6240670;22;20168;-77
2023/02/27 02:49:03;;;;;;;5.00;3.13;;;;;;;;;;6240262;22;20239;-77
2023/02/27 02:51:39;;;;;;;3.77;2.70;;;;;;;;;;6240620;22;20177;-77
2023/02/27 02:54:09;;;;;;;5.60;2.53;;;;;;;;;;6266989;22;20159;-77
2023/02/27 02:56:37;;;;;;;4.60;3.30;;;;;;;;;;6266152;22;20223;-77
2023/02/27 02:59:28;;;;;;;5.53;3.43;;;;;;;;;;6267335;22;20178;-77
2023/02/27 03:02:00;;;;;;;4.97;3.13;;;;;;;;;;6267316;22;20139;-77
2023/02/27 03:04:30;;;;;;;3.67;2.87;;;;;;;;;;6240450;22;20172;-77
2023/02/27 03:07:00;;;;;;;3.50;2.80;;;;;;;;;;6267436;22;20226;-77
2023/02/27 03:09:33;;;;;;;4.67;2.90;;;;;;;;;;6267959;22;20181;-77
2023/02/27 03:12:02;;;;;;;5.50;3.20;;;;;;;;;;6269233;22;20141;-76
2023/02/27 03:14:28;;;;;;;4.30;3.00;;;;;;;;;;6269934;22;20232;-76
2023/02/27 03:16:54;;;;;;;4.07;2.90;;;;;;;;;;6269154;22;20149;-77
2023/02/27 03:19:23;;;;;;;5.17;3.50;;;;;;;;;;6268960;22;20184;-77
2023/02/27 03:22:04;;;;;;;3.63;2.80;;;;;;;;;;6269645;22;20152;-76
2023/02/27 03:24:37;;;;;;;4.60;3.10;;;;;;;;;;6242645;22;20161;-77
2023/02/27 03:27:04;;;;;;;3.67;3.27;;;;;;;;;;6269392;22;20590;-77
2023/02/27 03:29:45;;;;;;;5.40;3.33;;;;;;;;;;6241405;22;21043;-77
2023/02/27 03:32:20;;;;;;;6.13;3.53;;;;;;;;;;6241856;22;20259;-76
2023/02/27 03:34:47;;;;;;;4.23;3.20;;;;;;;;;;6241237;22;20589;-78
2023/02/27 03:37:20;;;;;;;4.77;3.20;;;;;;;;;;6267937;22;20156;-75
2023/02/27 03:39:50;;;;;;;4.07;3.40;;;;;;;;;;6268061;22;20608;-76
2023/02/27 03:42:16;;;;;;;4.83;3.20;;;;;;;;;;6241059;22;20228;-77
2023/02/27 03:44:45;;;;;;;4.63;3.20;;;;;;;;;;6240034;22;20196;-75
2023/02/27 03:47:11;;;;;;;5.83;4.10;;;;;;;;;;6239875;22;20936;-76
2023/02/27 03:49:37;;;;;;;8.47;4.60;;;;;;;;;;6267832;22;20256;-77
2023/02/27 03:52:03;;;;;;;5.47;3.80;;;;;;;;;;6242749;22;20478;-76
2023/02/27 03:54:35;;;;;;;6.43;3.70;;;;;;;;;;6269917;22;20153;-77
2023/02/27 03:57:03;;;;;;;4.93;3.90;;;;;;;;;;6242224;22;20234;-77
2023/02/27 03:59:30;;;;;;;4.60;3.50;;;;;;;;;;6242591;22;20181;-76
2023/02/27 04:01:56;;;;;;;5.03;3.37;;;;;;;;;;6269243;22;20514;-77
2023/02/27 04:04:22;;;;;;;3.83;3.07;;;;;;;;;;6241625;22;20252;-76
2023/02/27 04:09:53;;;;;;;6.00;3.00;;;;;;;;;;6269533;22;20526;-78
2023/02/27 04:12:37;;;;;;;5.90;3.27;;;;;;;;;;6242219;22;20145;-78
2023/02/27 04:15:08;;;;;;;4.40;2.70;;;;;;;;;;6241852;22;20161;-75
2023/02/27 04:17:51;;;;;;;5.10;2.73;;;;;;;;;;6268329;22;20482;-75
2023/02/27 04:20:26;;;;;;;4.10;3.47;;;;;;;;;;6269289;22;20145;-78
2023/02/27 04:22:57;;;;;;;4.43;3.13;;;;;;;;;;6241862;22;20214;-77
2023/02/27 04:25:23;;;;;;;3.70;2.93;;;;;;;;;;6241354;22;20161;-77
2023/02/27 04:27:56;;;;;;;4.50;3.50;;;;;;;;;;6268431;22;20522;-78
2023/02/27 04:30:27;;;;;;;4.33;3.27;;;;;;;;;;6268506;22;20649;-78
2023/02/27 04:32:53;;;;;;;4.60;3.33;;;;;;;;;;6241106;22;20175;-75
2023/02/27 04:35:28;;;;;;;4.30;3.27;;;;;;;;;;6240709;22;20161;-78
2023/02/27 04:38:04;;;;;;;4.80;3.60;;;;;;;;;;6267203;22;20594;-76
2023/02/27 04:40:36;;;;;;;6.27;4.03;;;;;;;;;;6263580;22;20259;-74
2023/02/27 04:43:03;;;;;;;5.33;3.90;;;;;;;;;;6266581;22;20157;-78
2023/02/27 04:45:31;;;;;;;5.70;3.40;;;;;;;;;;6238318;22;20242;-75
2023/02/27 04:48:09;;;;;;;6.00;3.90;;;;;;;;;;6265987;22;20586;-76
2023/02/27 04:50:46;;;;;;;4.80;4.00;;;;;;;;;;6266550;22;20159;-77
2023/02/27 04:53:30;;;;;;;6.90;4.00;;;;;;;;;;6266354;22;20187;-75
2023/02/27 04:55:59;;;;;;;5.20;4.00;;;;;;;;;;6267789;22;20156;-78
2023/02/27 04:58:33;;;;;;;6.57;3.93;;;;;;;;;;6241679;22;20263;-75
2023/02/27 05:01:13;;;;;;;6.50;4.83;;;;;;;;;;6267907;22;20160;-78
2023/02/27 05:03:42;;;;;;;9.83;5.63;;;;;;;;;;6267379;22;20137;-77
2023/02/27 05:06:08;;;;;;;10.47;6.20;;;;;;;;;;6267357;22;20734;-77
2023/02/27 05:08:41;;;;;;;10.50;7.23;;;;;;;;;;6267568;22;20202;-77
2023/02/27 05:11:10;;;;;;;17.53;10.70;;;;;;;;;;6268111;22;20493;-75
2023/02/27 05:13:42;;;;;;;18.70;10.67;;;;;;;;;;6268310;22;20129;-75
2023/02/27 05:16:37;;;;;;;17.67;9.33;;;;;;;;;;6268072;22;20137;-76
2023/02/27 05:19:04;;;;;;;13.27;8.37;;;;;;;;;;6241104;22;20193;-77
2023/02/27 05:21:33;;;;;;;15.10;8.37;;;;;;;;;;6268454;22;20191;-76
2023/02/27 05:24:18;;;;;;;19.80;10.93;;;;;;;;;;6268350;22;20149;-77
2023/02/27 05:27:03;;;;;;;22.57;12.10;;;;;;;;;;6240479;22;20163;-75
2023/02/27 05:29:41;;;;;;;19.63;12.38;;;;;;;;;;6266483;22;20402;-77
2023/02/27 05:32:14;;;;;;;20.20;12.53;;;;;;;;;;6268263;22;20199;-77
2023/02/27 05:34:54;;;;;;;15.57;9.80;;;;;;;;;;6241853;22;20157;-77
2023/02/27 05:37:24;;;;;;;19.47;11.57;;;;;;;;;;6241530;22;20993;-79
2023/02/27 05:39:52;;;;;;;16.07;9.27;;;;;;;;;;6269774;22;20157;-79
2023/02/27 05:42:21;;;;;;;17.77;10.90;;;;;;;;;;6270745;22;20176;-77
2023/02/27 05:44:49;;;;;;;20.27;11.13;;;;;;;;;;6270482;22;20156;-78
2023/02/27 05:47:17;;;;;;;17.80;10.37;;;;;;;;;;6270083;22;20157;-76
2023/02/27 05:49:47;;;;;;;17.07;9.67;;;;;;;;;;6269578;22;20522;-79
2023/02/27 05:52:15;;;;;;;22.93;12.47;;;;;;;;;;6269998;22;20157;-76
2023/02/27 05:54:56;;;;;;;25.10;13.53;;;;;;;;;;6243844;22;20157;-79
2023/02/27 05:57:26;;;;;;;28.53;15.30;;;;;;;;;;6269447;22;20157;-78
2023/02/27 05:59:52;;;;;;;24.53;14.87;;;;;;;;;;6268544;22;20650;-77
2023/02/27 06:02:18;;;;;;;21.33;13.27;;;;;;;;;;6268401;22;20232;-76
2023/02/27 06:04:44;;;;;;;26.13;15.50;;;;;;;;;;6241065;22;20239;-78
2023/02/27 06:07:11;;;;;;;20.90;13.67;;;;;;;;;;6269701;22;20160;-78
2023/02/27 06:09:37;;;;;;;28.87;15.03;;;;;;;;;;6269469;22;20180;-78
2023/02/27 06:12:03;;;;;;;31.47;15.93;;;;;;;;;;6269072;22;20208;-77
2023/02/27 06:14:29;;;;;;;26.90;14.47;;;;;;;;;;6246767;22;20153;-77
2023/02/27 06:16:55;;;;;;;36.70;17.53;;;;;;;;;;6250400;22;20291;-79
2023/02/27 06:19:21;;;;;;;20.27;11.73;;;;;;;;;;6270679;22;20184;-77
2023/02/27 06:21:47;;;;;;;17.83;10.90;;;;;;;;;;6271036;22;20163;-78
2023/02/27 06:24:13;;;;;;;15.63;8.80;;;;;;;;;;6242005;22;20161;-76
2023/02/27 06:26:39;;;;;;;13.67;9.03;;;;;;;;;;6269307;22;20165;-77
2023/02/27 06:29:05;;;;;;;18.13;9.60;;;;;;;;;;6267849;22;20181;-76
2023/02/27 06:31:31;;;;;;;10.03;7.10;;;;;;;;;;6240786;22;20168;-77
2023/02/27 06:33:57;;;;;;;12.60;7.90;;;;;;;;;;6268648;22;20160;-77
2023/02/27 06:36:23;;;;;;;12.10;7.83;;;;;;;;;;6267732;22;20259;-77
2023/02/27 06:38:49;;;;;;;9.60;6.87;;;;;;;;;;6268364;22;20574;-78
2023/02/27 06:41:15;;;;;;;10.60;7.37;;;;;;;;;;6267898;22;20138;-77
2023/02/27 06:43:41;;;;;;;11.87;8.30;;;;;;;;;;6239575;22;20215;-76
2023/02/27 06:46:07;;;;;;;9.80;6.77;;;;;;;;;;6240449;22;20158;-78
2023/02/27 06:48:33;;;;;;;6.97;5.70;;;;;;;;;;6238845;22;20181;-75
2023/02/27 06:50:59;;;;;;;9.27;6.63;;;;;;;;;;6239197;22;20157;-75
2023/02/27 06:53:25;;;;;;;9.60;6.70;;;;;;;;;;6268249;22;20243;-76
2023/02/27 06:55:51;;;;;;;8.37;5.87;;;;;;;;;;6242643;22;20221;-75
2023/02/27 06:58:17;;;;;;;9.40;6.47;;;;;;;;;;6242884;22;20353;-76
2023/02/27 07:00:43;;;;;;;9.83;6.50;;;;;;;;;;6243084;22;20723;-78
2023/02/27 07:03:09;;;;;;;10.17;6.97;;;;;;;;;;6242957;22;20549;-78
2023/02/27 07:05:35;;;;;;;11.27;6.83;;;;;;;;;;6269970;22;21239;-74
2023/02/27 07:08:02;;;;;;;8.33;6.50;;;;;;;;;;6242583;22;20686;-78
2023/02/27 07:10:28;;;;;;;7.90;6.20;;;;;;;;;;6269967;22;20145;-77
2023/02/27 07:12:54;;;;;;;11.30;6.97;;;;;;;;;;6270467;22;20160;-77
2023/02/27 07:15:20;;;;;;;7.87;6.27;;;;;;;;;;6269911;22;20466;-77
2023/02/27 07:17:55;;;;;;;8.03;5.90;;;;;;;;;;6270142;22;20169;-74
2023/02/27 07:20:22;;;;;;;7.67;6.23;;;;;;;;;;6242956;22;20223;-78
2023/02/27 07:22:48;;;;;;;8.93;6.07;;;;;;;;;;6270808;22;20149;-77
2023/02/27 07:25:14;;;;;;;8.73;6.30;;;;;;;;;;6267389;22;20211;-77
2023/02/27 07:27:40;;;;;;;8.27;5.47;;;;;;;;;;6267103;22;20224;-77
2023/02/27 07:30:06;;;;;;;7.73;6.20;;;;;;;;;;6267973;22;20173;-77
2023/02/27 07:32:32;;;;;;;6.40;5.70;;;;;;;;;;6240244;22;20237;-77
2023/02/27 07:34:58;;;;;;;8.03;5.73;;;;;;;;;;6266853;22;20199;-73
2023/02/27 07:37:24;;;;;;;7.40;5.50;;;;;;;;;;6265041;22;20145;-77
2023/02/27 07:39:50;;;;;;;10.80;6.23;;;;;;;;;;6264421;22;20185;-77
2023/02/27 07:42:16;;;;;;;6.90;5.47;;;;;;;;;;6265348;22;20194;-77
2023/02/27 07:44:42;;;;;;;9.80;5.40;;;;;;;;;;6264030;22;20157;-77
2023/02/27 07:47:08;;;;;;;10.70;5.70;;;;;;;;;;6261826;22;20157;-74
2023/02/27 07:49:34;;;;;;;6.83;5.30;;;;;;;;;;6265689;22;20236;-77
2023/02/27 07:52:00;;;;;;;7.97;5.20;;;;;;;;;;6263262;22;20256;-76
2023/02/27 07:54:26;;;;;;;6.80;5.13;;;;;;;;;;6261450;22;20564;-77
2023/02/27 07:56:52;;;;;;;6.57;5.13;;;;;;;;;;6263414;22;20157;-76
2023/02/27 07:59:18;;;;;;;5.87;5.13;;;;;;;;;;6241797;22;20857;-77
2023/02/27 08:01:44;;;;;;;6.63;5.87;;;;;;;;;;6242465;22;20154;-77
2023/02/27 08:04:10;;;;;;;7.40;4.60;;;;;;;;;;6268334;22;20177;-77
2023/02/27 08:06:36;;;;;;;6.13;5.00;;;;;;;;;;6268035;22;20228;-78
2023/02/27 08:09:02;;;;;;;5.97;5.10;;;;;;;;;;6268277;22;20181;-77
2023/02/27 08:11:28;;;;;;;7.53;5.10;;;;;;;;;;6267826;22;20160;-76
2023/02/27 08:13:54;;;;;;;6.03;4.87;;;;;;;;;;6268436;22;20149;-77
2023/02/27 08:16:20;;;;;;;8.47;5.27;;;;;;;;;;6268641;22;20605;-76
2023/02/27 08:18:46;;;;;;;6.67;5.57;;;;;;;;;;6240680;22;20664;-77
2023/02/27 08:21:12;;;;;;;11.37;7.43;;;;;;;;;;6269422;22;20844;-77
2023/02/27 08:23:38;;;;;;;9.47;7.23;;;;;;;;;;6269913;22;20160;-77
2023/02/27 08:26:04;;;;;;;8.00;6.17;;;;;;;;;;6266022;22;20484;-76
2023/02/27 08:28:30;;;;;;;6.23;5.47;;;;;;;;;;6238969;22;20193;-75
2023/02/27 08:30:56;;;;;;;6.73;4.93;;;;;;;;;;6266657;22;20576;-76
2023/02/27 08:33:23;;;;;;;7.83;5.47;;;;;;;;;;6240036;22;20157;-78
2023/02/27 08:35:49;;;;;;;6.30;5.00;;;;;;;;;;6239689;22;20161;-77
2023/02/27 08:38:15;;;;;;;8.50;5.37;;;;;;;;;;6266751;22;20176;-75
2023/02/27 08:40:41;;;;;;;7.47;4.73;;;;;;;;;;6266551;22;20149;-78
2023/02/27 08:43:07;;;;;;;7.90;5.50;;;;;;;;;;6265392;22;20151;-76
2023/02/27 08:45:33;;;;;;;6.60;4.60;;;;;;;;;;6266599;22;20171;-77
2023/02/27 08:47:59;;;;;;;8.07;5.33;;;;;;;;;;6265485;22;20198;-76
2023/02/27 08:50:25;;;;;;;7.93;4.80;;;;;;;;;;6265933;22;20341;-76
2023/02/27 08:52:51;;;;;;;5.77;4.80;;;;;;;;;;6266156;22;20137;-78
2023/02/27 08:55:18;;;;;;;7.50;5.23;;;;;;;;;;6263288;22;20747;-77
2023/02/27 08:57:44;;;;;;;5.53;4.50;;;;;;;;;;6238482;22;20525;-76
2023/02/27 09:00:13;;;;;;;7.43;6.43;;;;;;;;;;6266117;22;20203;-77
2023/02/27 09:02:39;;;;;;;8.10;5.27;;;;;;;;;;6266243;22;20236;-77
2023/02/27 09:05:06;;;;;;;8.67;4.80;;;;;;;;;;6264865;22;20204;-75
2023/02/27 09:07:33;;;;;;;7.80;5.07;;;;;;;;;;6264777;22;20203;-77
2023/02/27 09:09:59;;;;;;;14.17;12.57;;;;;;;;;;6237298;22;21017;-77
2023/02/27 09:12:25;;;;;;;9.43;5.73;;;;;;;;;;6264412;22;20138;-77
2023/02/27 09:14:51;;;;;;;6.40;4.50;;;;;;;;;;6263561;22;20142;-76
2023/02/27 09:17:18;;;;;;;6.50;5.10;;;;;;;;;;6234905;22;20180;-74
2023/02/27 09:19:50;;;;;;;6.07;5.30;;;;;;;;;;6264089;22;20152;-76
2023/02/27 09:22:17;;;;;;;6.27;4.70;;;;;;;;;;6235996;22;20164;-77
2023/02/27 09:24:43;;;;;;;8.70;4.90;;;;;;;;;;6261988;22;20459;-76
2023/02/27 09:27:09;;;;;;;7.30;5.23;;;;;;;;;;6263671;22;20145;-74
2023/02/27 09:29:35;;;;;;;7.53;5.67;;;;;;;;;;6263839;22;20265;-77
2023/02/27 09:32:01;;;;;;;5.60;4.97;;;;;;;;;;6236600;22;20149;-77
2023/02/27 09:34:28;;;;;;;8.07;5.70;;;;;;;;;;6264777;22;20172;-77
2023/02/27 09:36:54;;;;;;;10.50;6.33;;;;;;;;;;6263051;22;20156;-77
2023/02/27 09:39:20;;;;;;;9.97;6.33;;;;;;;;;;6262042;22;20250;-75
2023/02/27 09:41:47;;;;;;;9.43;5.80;;;;;;;;;;6263740;22;20674;-77
2023/02/27 09:44:21;;;;;;;6.97;5.53;;;;;;;;;;6262699;22;20477;-77
2023/02/27 09:46:47;;;;;;;7.00;5.80;;;;;;;;;;6235812;22;20163;-76
2023/02/27 09:49:18;;;;;;;9.67;7.17;;;;;;;;;;6262636;22;20661;-75
2023/02/27 09:51:44;;;;;;;9.63;5.67;;;;;;;;;;6263022;22;20144;-77
2023/02/27 09:54:11;;;;;;;8.20;5.60;;;;;;;;;;6262319;22;20137;-74
2023/02/27 09:56:41;;;;;;;5.87;5.27;;;;;;;;;;6234821;22;20160;-77
2023/02/27 09:59:07;;;;;;;8.20;6.40;;;;;;;;;;6263511;22;20628;-77
2023/02/27 10:01:46;;;;;;;9.53;6.30;;;;;;;;;;6263502;22;20232;-77
2023/02/27 10:04:39;;;;;;;9.60;6.97;;;;;;;;;;6257183;22;20153;-76
2023/02/27 10:07:15;;;;;;;10.73;6.20;;;;;;;;;;6256893;22;20272;-75
2023/02/27 10:09:57;;;;;;;7.03;6.10;;;;;;;;;;6234927;22;20291;-76
2023/02/27 10:12:26;;;;;;;7.43;5.93;;;;;;;;;;6262464;22;20142;-76
2023/02/27 10:14:55;;;;;;;11.00;7.17;;;;;;;;;;6261837;22;20142;-76
2023/02/27 10:17:30;;;;;;;7.17;6.20;;;;;;;;;;6262187;22;20203;-74
2023/02/27 10:19:57;;;;;;;9.23;6.50;;;;;;;;;;6264422;22;20157;-77
2023/02/27 10:22:26;;;;;;;8.33;6.10;;;;;;;;;;6265589;22;20639;-78
2023/02/27 10:25:00;;;;;;;7.97;5.67;;;;;;;;;;6264078;22;20679;-77
2023/02/27 10:27:26;;;;;;;6.93;5.47;;;;;;;;;;6265415;22;20144;-75
2023/02/27 10:29:54;;;;;;;6.87;5.50;;;;;;;;;;6264345;22;20942;-77
2023/02/27 10:32:23;;;;;;;7.17;4.87;;;;;;;;;;6266313;22;20518;-77
2023/02/27 10:34:55;;;;;;;5.73;5.03;;;;;;;;;;6266047;22;20138;-75
2023/02/27 10:37:23;;;;;;;6.47;5.07;;;;;;;;;;6238041;22;20149;-75
2023/02/27 10:39:53;;;;;;;7.37;4.93;;;;;;;;;;6264123;22;20152;-75
2023/02/27 10:42:19;;;;;;;7.60;4.70;;;;;;;;;;6240216;22;20203;-76
2023/02/27 10:44:45;;;;;;;8.67;4.63;;;;;;;;;;6272109;22;20137;-77
2023/02/27 10:47:17;;;;;;;6.60;4.73;;;;;;;;;;6266550;22;20156;-76
2023/02/27 10:49:43;;;;;;;6.97;4.70;;;;;;;;;;6266592;22;20223;-76
2023/02/27 10:52:11;;;;;;;7.30;4.97;;;;;;;;;;6270440;22;20160;-75
2023/02/27 10:54:37;;;;;;;6.33;4.50;;;;;;;;;;6270438;22;20145;-76
2023/02/27 10:57:18;;;;;;;6.00;3.50;;;;;;;;;;6266667;22;20232;-77
2023/02/27 10:59:50;;;;;;;5.83;3.70;;;;;;;;;;6240064;22;20192;-77
2023/02/27 11:02:16;;;;;;;4.17;3.33;;;;;;;;;;6268317;22;20152;-77
2023/02/27 11:04:46;;;;;;;4.47;3.30;;;;;;;;;;6272899;22;20828;-76
2023/02/27 11:07:15;;;;;;;6.27;5.00;;;;;;;;;;6271607;22;20145;-76
2023/02/27 11:09:42;;;;;;;5.77;3.60;;;;;;;;;;6273139;22;20648;-77
2023/02/27 11:12:11;;;;;;;5.00;3.30;;;;;;;;;;6273868;22;20176;-77
2023/02/27 11:14:48;;;;;;;6.70;3.67;;;;;;;;;;6246754;22;20161;-77
2023/02/27 11:17:21;;;;;;;5.67;3.10;;;;;;;;;;6273087;22;20171;-77
2023/02/27 11:19:48;;;;;;;7.13;3.70;;;;;;;;;;6273261;22;20597;-77
2023/02/27 11:22:18;;;;;;;5.30;3.40;;;;;;;;;;6272226;22;20164;-77
2023/02/27 11:24:44;;;;;;;6.13;3.20;;;;;;;;;;6266001;22;20142;-77
2023/02/27 11:27:27;;;;;;;15.30;9.37;;;;;;;;;;6239273;22;20171;-77
2023/02/27 11:30:05;;;;;;;5.53;3.73;;;;;;;;;;6267787;22;20303;-75
2023/02/27 11:32:36;;;;;;;4.43;2.97;;;;;;;;;;6244761;22;20211;-77
2023/02/27 11:35:03;;;;;;;3.13;1.70;;;;;;;;;;6266484;22;20210;-77
2023/02/27 11:37:32;;;;;;;10.30;5.90;;;;;;;;;;6264607;22;20593;-78
2023/02/27 11:40:13;;;;;;;2.53;1.60;;;;;;;;;;6239567;22;21232;-77
2023/02/27 11:42:48;;;;;;;10.67;6.90;;;;;;;;;;6268902;22;20161;-78
2023/02/27 11:45:20;;;;;;;3.33;2.40;;;;;;;;;;6239132;22;20152;-78
2023/02/27 11:47:51;;;;;;;3.50;1.90;;;;;;;;;;6238230;22;20185;-77
2023/02/27 11:50:30;;;;;;;4.40;2.43;;;;;;;;;;6268565;22;20246;-77
2023/02/27 11:53:06;;;;;;;4.17;1.80;;;;;;;;;;6266175;22;20157;-77
2023/02/27 11:55:33;;;;;;;3.73;1.57;;;;;;;;;;6272767;22;20487;-77
2023/02/27 11:58:09;;;;;;;4.23;1.97;;;;;;;;;;6271883;22;20195;-77
2023/02/27 12:00:40;;;;;;;2.53;1.57;;;;;;;;;;6267290;22;20153;-78
2023/02/27 12:03:18;;;;;;;3.00;2.00;;;;;;;;;;6263200;22;20141;-77
2023/02/27 12:05:48;;;;;;;6.03;2.33;;;;;;;;;;6264646;22;20141;-78
2023/02/27 12:08:14;;;;;;;4.87;2.40;;;;;;;;;;6265019;22;20173;-78
2023/02/27 12:10:47;;;;;;;4.00;2.00;;;;;;;;;;6264291;22;20224;-77
2023/02/27 12:13:20;;;;;;;2.23;1.90;;;;;;;;;;6265437;22;20925;-74
2023/02/27 12:15:58;;;;;;;4.57;2.20;;;;;;;;;;6266522;22;20145;-78
2023/02/27 12:18:27;;;;;;;4.27;2.20;;;;;;;;;;6263316;22;20179;-77
2023/02/27 12:20:57;;;;;;;4.80;2.57;;;;;;;;;;6265628;22;20149;-79
2023/02/27 12:23:33;;;;;;;4.63;1.90;;;;;;;;;;6266789;22;20457;-77
2023/02/27 13:27:24;;;;;;;10.43;6.60;;;19.60;1.00;;;;;;5125057;27;20564;-80
2023/02/27 13:30:23;;;;;;;11.73;9.57;;;6.10;1.00;;;;;;5114695;28;20278;-78
2023/02/27 13:33:12;;;;;;;3.10;2.10;;;5.50;1.00;;;;;;5116317;27;20192;-79
2023/02/27 13:36:16;;;;;;;2.97;2.30;;;5.20;1.00;;;;;;5096602;28;20552;-80
2023/02/27 13:38:45;;;;;;;7.50;2.90;;;4.50;1.00;;;;;;5114060;27;20215;-80
2023/02/27 13:41:20;;;;;;;9.07;6.63;;;4.30;1.00;;;;;;5099131;28;20872;-82
2023/02/27 13:43:51;;;;;;;4.67;3.50;;;4.30;1.00;;;;;;5098967;28;20179;-81
2023/02/27 13:46:25;;;;;;;2.33;1.60;;;4.30;1.00;;;;;;5096728;28;20578;-78
2023/02/27 13:48:53;;;;;;;2.57;1.63;;;4.20;1.00;;;;;;5099955;28;20204;-81
2023/02/27 13:51:34;;;;;;;3.33;1.87;;;4.20;1.00;;;;;;5098264;28;20565;-80
2023/02/27 13:54:16;;;;;;;1.97;1.40;;;4.50;1.00;;;;;;5091555;28;20687;-78
2023/02/27 13:56:46;;;;;;;1.80;1.50;;;4.50;1.00;;;;;;5115397;27;20208;-79
2023/02/27 13:59:19;;;;;;;2.70;1.57;;;4.30;1.00;;;;;;5096933;28;20524;-79
2023/02/27 14:01:55;;;;;;;2.63;1.40;;;4.40;1.00;;;;;;5099698;28;20191;-80
2023/02/27 14:04:25;;;;;;;3.17;1.73;;;4.20;1.00;;;;;;5100819;28;20186;-80
2023/02/27 14:07:00;;;;;;;3.03;1.40;;;4.10;1.00;;;;;;5100990;28;20184;-79
2023/02/27 14:09:33;;;;;;;3.57;1.60;;;4.10;1.00;;;;;;5099307;28;20238;-81
2023/02/27 14:12:01;;;;;;;3.20;2.07;;;4.10;1.00;;;;;;5097677;28;20386;-82
2023/02/27 14:14:45;;;;;;;3.27;1.97;;;4.10;1.00;;;;;;5100115;28;20185;-80
2023/02/27 14:17:34;;;;;;;2.90;1.80;;;3.80;1.00;;;;;;5098681;28;20191;-80
2023/02/27 14:20:11;;;;;;;3.43;2.00;;;3.70;1.00;;;;;;5097955;28;20180;-79
2023/02/27 14:22:43;;;;;;;5.23;1.97;;;3.70;1.00;;;;;;5098200;28;20276;-80
2023/02/27 14:25:20;;;;;;;2.87;2.17;;;3.70;1.00;;;;;;5100785;28;20172;-79
2023/02/27 14:27:58;;;;;;;2.60;2.00;;;3.80;1.00;;;;;;5091235;28;20222;-79
2023/02/27 14:30:51;;;;;;;4.47;2.10;;;3.70;1.00;;;;;;5086327;28;20727;-78
2023/02/27 14:33:35;;;;;;;2.93;1.27;;;4.50;1.00;;;;;;5082365;28;20249;-80
2023/02/27 14:36:07;;;;;;;3.10;1.40;;;3.90;1.00;;;;;;5117297;27;20208;-80
2023/02/27 14:38:34;;;;;;;2.43;1.20;;;3.90;1.00;;;;;;5084088;28;20288;-80
2023/02/27 14:41:16;;;;;;;3.37;1.70;;;3.80;1.00;;;;;;5075891;28;20184;-79
2023/02/27 14:43:54;;;;;;;1.70;1.03;;;3.90;1.00;;;;;;5085192;28;20558;-79
2023/02/27 14:46:37;;;;;;;2.80;1.30;;;3.80;1.00;;;;;;5083561;28;20222;-79
2023/02/27 14:49:15;;;;;;;2.23;1.00;;;3.80;1.00;;;;;;5118393;27;20208;-80
2023/02/27 14:51:43;;;;;;;6.03;4.00;;;3.80;1.00;;;;;;5117906;27;20212;-78
2023/02/27 14:54:15;;;;;;;3.87;3.37;;;3.80;1.00;;;;;;5116885;27;20176;-81
2023/02/27 14:57:03;;;;;;;4.93;4.30;;;3.80;1.00;;;;;;5087476;28;20204;-80
2023/02/27 14:59:43;;;;;;;6.23;3.80;;;3.80;1.00;;;;;;5086371;28;20207;-80
2023/02/27 15:02:29;;;;;;;3.83;3.17;;;3.80;1.00;;;;;;5115309;27;20181;-82
2023/02/27 15:05:01;;;;;;;5.20;2.73;;;3.90;1.00;;;;;;5072678;28;20193;-82
2023/02/27 15:07:30;;;;;;;5.07;4.53;;;3.90;1.00;;;;;;5070986;28;20398;-80
2023/02/27 15:10:19;;;;;;;;;;;;;;;;;;;;;
2023/02/27 15:12:46;;;;;;;34.43;20.97;;;3.80;1.00;;;;;;5080470;28;20608;-79
2023/02/27 15:15:20;;;;;;;98.30;43.27;;;3.70;1.00;;;;;;5079974;28;20211;-80
2023/02/27 15:17:46;;;;;;;204.63;90.00;;;3.60;1.00;;;;;;5080832;28;20193;-79
2023/02/27 15:20:32;;;;;;;235.10;101.07;;;3.60;1.00;;;;;;5082539;28;20181;-79
2023/02/27 15:23:00;;;;;;;111.37;56.63;;;3.60;1.00;;;;;;5077601;28;20184;-78
2023/02/27 15:25:35;;;;;;;39.60;28.03;;;3.50;1.00;;;;;;5079064;28;20676;-79
2023/02/27 15:28:06;;;;;;;11.03;10.10;;;3.50;1.00;;;;;;5081602;28;20215;-79
2023/02/27 15:30:32;;;;;;;7.00;4.53;;;3.50;1.00;;;;;;5081062;28;20357;-79
2023/02/27 15:32:59;;;;;;;27.07;23.47;;;3.50;1.00;;;;;;5112787;27;20778;-79
2023/02/27 15:35:35;;;;;;;29.07;26.97;;;3.40;1.00;;;;;;5078286;28;20610;-78
2023/02/27 15:38:01;;;;;;;3.30;3.00;;;3.50;1.00;;;;;;5079751;28;20201;-79
2023/02/27 15:40:32;;;;;;;4.77;4.00;;;3.40;1.00;;;;;;5080099;28;20550;-80
2023/02/27 15:42:59;;;;;;;7.13;5.47;;;3.40;1.00;;;;;;5078487;28;20185;-79
2023/02/27 15:45:30;;;;;;;2.03;1.40;;;3.40;1.00;;;;;;5114648;27;20181;-79